createdAt,value
2017-03-20T00:01:39.365Z,9
2017-03-20T00:02:41.714Z,9
2017-03-20T00:03:44.434Z,9
2017-03-20T00:04:47.150Z,9
2017-03-20T00:05:50.005Z,9
2017-03-20T00:06:52.662Z,9
2017-03-20T00:07:55.010Z,8.9
2017-03-20T00:08:57.862Z,8.9
2017-03-20T00:10:00.446Z,9
2017-03-20T00:11:03.168Z,9
2017-03-20T00:12:05.677Z,9
2017-03-20T00:13:08.526Z,8.9
2017-03-20T00:14:10.882Z,8.8
2017-03-20T00:15:13.726Z,9
2017-03-20T00:16:16.577Z,9
2017-03-20T00:17:19.092Z,9
2017-03-20T00:18:21.441Z,8.9
2017-03-20T00:19:24.292Z,9
2017-03-20T00:20:26.879Z,9
2017-03-20T00:21:29.723Z,9
2017-03-20T00:22:32.371Z,9
2017-03-20T00:23:34.718Z,9.1
2017-03-20T00:24:37.437Z,9
2017-03-20T00:25:40.151Z,8.9
2017-03-20T00:26:42.995Z,8.9
2017-03-20T00:27:45.656Z,8.8
2017-03-20T00:28:48.016Z,8.9
2017-03-20T00:29:50.728Z,8.8
2017-03-20T00:30:53.437Z,8.9
2017-03-20T00:31:56.723Z,8.9
2017-03-20T00:32:59.054Z,8.9
2017-03-20T00:34:01.406Z,9
2017-03-20T00:35:04.256Z,8.9
2017-03-20T00:36:06.524Z,8.8
2017-03-20T00:37:09.370Z,8.8
2017-03-20T00:38:12.089Z,9
2017-03-20T00:39:14.439Z,9
2017-03-20T00:41:20.199Z,9
2017-03-20T00:42:22.546Z,9.1
2017-03-20T00:43:25.651Z,9
2017-03-20T00:44:27.867Z,8.9
2017-03-20T00:45:30.719Z,8.9
2017-03-20T00:46:32.926Z,8.9
2017-03-20T00:47:35.783Z,8.9
2017-03-20T00:48:38.750Z,8.9
2017-03-20T00:49:41.101Z,9
2017-03-20T00:50:43.945Z,8.9
2017-03-20T00:51:46.290Z,8.9
2017-03-20T00:52:49.140Z,8.9
2017-03-20T00:53:52.030Z,8.9
2017-03-20T00:54:54.242Z,8.9
2017-03-20T00:55:56.957Z,9
2017-03-20T00:56:59.803Z,9
2017-03-20T00:58:02.149Z,9
2017-03-20T00:59:05.249Z,8.9
2017-03-20T01:00:07.595Z,8.9
2017-03-20T01:01:10.311Z,9
2017-03-20T01:02:13.158Z,8.9
2017-03-20T01:03:15.504Z,8.9
2017-03-20T01:04:18.661Z,8.9
2017-03-20T01:05:21.006Z,8.9
2017-03-20T01:06:23.723Z,9
2017-03-20T01:08:28.974Z,9
2017-03-20T01:09:32.189Z,9
2017-03-20T01:10:34.031Z,8.9
2017-03-20T01:11:36.947Z,8.8
2017-03-20T01:12:39.301Z,8.9
2017-03-20T01:13:42.022Z,8.9
2017-03-20T01:14:45.537Z,8.9
2017-03-20T01:15:47.382Z,8.9
2017-03-20T01:16:50.231Z,8.8
2017-03-20T01:17:52.586Z,8.8
2017-03-20T01:19:58.099Z,8.8
2017-03-20T01:21:00.445Z,8.9
2017-03-20T01:22:03.023Z,8.9
2017-03-20T01:23:05.669Z,8.9
2017-03-20T01:24:08.518Z,8.9
2017-03-20T01:25:11.674Z,9
2017-03-20T01:26:14.047Z,8.9
2017-03-20T01:28:19.312Z,9
2017-03-20T01:29:22.036Z,8.8
2017-03-20T01:30:24.681Z,8.8
2017-03-20T01:31:27.025Z,8.9
2017-03-20T01:32:29.872Z,9
2017-03-20T01:33:32.222Z,9
2017-03-20T01:34:35.072Z,8.9
2017-03-20T01:35:38.092Z,8.9
2017-03-20T01:36:40.299Z,8.9
2017-03-20T01:37:43.146Z,9
2017-03-20T01:38:45.492Z,8.9
2017-03-20T01:39:48.350Z,8.9
2017-03-20T01:40:54.435Z,8.9
2017-03-20T01:41:53.759Z,8.9
2017-03-20T01:42:56.110Z,8.9
2017-03-20T01:43:58.888Z,8.8
2017-03-20T01:45:01.608Z,8.9
2017-03-20T01:46:04.510Z,8.9
2017-03-20T01:47:06.719Z,8.9
2017-03-20T01:48:09.437Z,9
2017-03-20T01:49:12.295Z,9
2017-03-20T01:50:14.642Z,9
2017-03-20T01:51:17.518Z,9
2017-03-20T01:52:20.373Z,9
2017-03-20T01:53:22.715Z,8.9
2017-03-20T01:54:25.572Z,8.9
2017-03-20T01:55:27.920Z,8.9
2017-03-20T01:56:30.671Z,8.9
2017-03-20T01:57:33.521Z,8.8
2017-03-20T01:58:35.871Z,8.8
2017-03-20T01:59:06.517Z,8.8
2017-03-20T01:59:38.663Z,8.9
2017-03-20T02:00:41.519Z,8.9
2017-03-20T02:01:43.863Z,8.9
2017-03-20T02:02:46.718Z,9
2017-03-20T02:03:49.071Z,9
2017-03-20T02:04:51.922Z,9
2017-03-20T02:05:54.634Z,8.9
2017-03-20T02:06:57.592Z,8.8
2017-03-20T02:07:59.937Z,8.8
2017-03-20T02:09:02.304Z,9
2017-03-20T02:10:05.151Z,9
2017-03-20T02:11:08.003Z,9
2017-03-20T02:12:10.265Z,9
2017-03-20T02:13:13.115Z,8.9
2017-03-20T02:14:15.968Z,8.8
2017-03-20T02:15:18.180Z,8.9
2017-03-20T02:16:21.025Z,9
2017-03-20T02:17:23.989Z,8.9
2017-03-20T02:18:26.336Z,8.8
2017-03-20T02:19:29.188Z,8.9
2017-03-20T02:20:31.542Z,8.9
2017-03-20T02:21:34.392Z,8.8
2017-03-20T02:22:36.904Z,9
2017-03-20T02:23:39.751Z,9
2017-03-20T02:24:41.961Z,9
2017-03-20T02:25:44.811Z,8.9
2017-03-20T02:26:47.661Z,9
2017-03-20T02:27:50.545Z,9
2017-03-20T02:28:52.763Z,8.9
2017-03-20T02:29:55.613Z,8.9
2017-03-20T02:30:57.829Z,8.9
2017-03-20T02:32:00.677Z,8.9
2017-03-20T02:33:03.644Z,9
2017-03-20T02:34:05.858Z,8.8
2017-03-20T02:35:08.702Z,8.9
2017-03-20T02:36:11.550Z,8.9
2017-03-20T02:37:14.819Z,8.9
2017-03-20T02:38:16.829Z,8.9
2017-03-20T02:39:19.546Z,8.8
2017-03-20T02:40:21.896Z,9
2017-03-20T02:41:24.607Z,8.9
2017-03-20T02:42:27.319Z,9
2017-03-20T02:43:29.955Z,9
2017-03-20T02:44:32.801Z,9
2017-03-20T02:45:35.011Z,9
2017-03-20T02:46:37.858Z,8.9
2017-03-20T02:47:40.709Z,9
2017-03-20T02:48:43.361Z,9
2017-03-20T02:49:45.708Z,9
2017-03-20T02:50:48.557Z,9
2017-03-20T02:51:50.902Z,9
2017-03-20T02:52:53.750Z,9
2017-03-20T02:53:56.766Z,9
2017-03-20T02:54:59.120Z,9
2017-03-20T02:56:01.703Z,8.9
2017-03-20T02:57:04.547Z,9
2017-03-20T02:58:06.904Z,9
2017-03-20T02:59:10.057Z,9
2017-03-20T03:00:12.397Z,9
2017-03-20T03:01:14.792Z,9
2017-03-20T03:02:17.509Z,9
2017-03-20T03:03:20.363Z,8.9
2017-03-20T03:04:23.012Z,8.9
2017-03-20T03:05:25.082Z,8.9
2017-03-20T03:06:28.426Z,8.9
2017-03-20T03:07:30.767Z,9
2017-03-20T03:08:33.617Z,8.9
2017-03-20T03:09:36.272Z,9
2017-03-20T03:10:38.548Z,9
2017-03-20T03:11:41.258Z,9
2017-03-20T03:12:43.972Z,9
2017-03-20T03:14:49.901Z,9
2017-03-20T03:15:52.249Z,8.9
2017-03-20T03:16:54.635Z,9
2017-03-20T03:17:57.352Z,9
2017-03-20T03:19:00.071Z,9
2017-03-20T03:20:02.670Z,9
2017-03-20T03:21:05.253Z,9
2017-03-20T03:22:08.100Z,9
2017-03-20T03:23:10.816Z,9
2017-03-20T03:24:13.160Z,9
2017-03-20T03:25:16.126Z,9
2017-03-20T03:26:18.476Z,9
2017-03-20T03:27:21.328Z,9
2017-03-20T03:28:23.909Z,9
2017-03-20T03:29:26.256Z,9
2017-03-20T03:30:29.355Z,8.9
2017-03-20T03:31:31.701Z,9
2017-03-20T03:32:34.582Z,9
2017-03-20T03:33:36.948Z,9
2017-03-20T03:34:39.804Z,9
2017-03-20T03:35:42.460Z,9
2017-03-20T03:36:44.673Z,8.9
2017-03-20T03:37:47.531Z,9
2017-03-20T03:38:50.383Z,9
2017-03-20T03:40:55.897Z,9
2017-03-20T03:41:58.241Z,9
2017-03-20T03:43:01.095Z,9.1
2017-03-20T03:44:03.441Z,9
2017-03-20T03:45:06.294Z,9
2017-03-20T03:46:08.954Z,9
2017-03-20T03:47:11.297Z,9
2017-03-20T03:48:14.159Z,9
2017-03-20T03:49:16.878Z,9
2017-03-20T03:50:19.739Z,9
2017-03-20T03:51:21.954Z,9
2017-03-20T03:52:24.669Z,9
2017-03-20T03:54:29.930Z,9
2017-03-20T03:55:32.533Z,9
2017-03-20T03:56:35.637Z,9
2017-03-20T03:57:37.987Z,9
2017-03-20T03:58:40.844Z,9
2017-03-20T03:59:43.198Z,9
2017-03-20T04:00:46.052Z,9
2017-03-20T04:01:48.654Z,9
2017-03-20T04:02:51.549Z,9
2017-03-20T04:03:53.905Z,9
2017-03-20T04:04:56.758Z,9
2017-03-20T04:05:59.109Z,9
2017-03-20T04:07:02.130Z,9.1
2017-03-20T04:08:04.345Z,9
2017-03-20T04:09:07.064Z,9
2017-03-20T04:10:09.919Z,9
2017-03-20T04:11:12.636Z,9
2017-03-20T04:12:15.241Z,9
2017-03-20T04:13:17.596Z,9
2017-03-20T04:14:20.313Z,8.9
2017-03-20T04:15:22.901Z,9
2017-03-20T04:16:25.623Z,9
2017-03-20T04:17:28.724Z,9
2017-03-20T04:18:31.072Z,9
2017-03-20T04:19:33.296Z,9.1
2017-03-20T04:20:36.159Z,9.1
2017-03-20T04:21:38.886Z,9.1
2017-03-20T04:22:41.726Z,9.1
2017-03-20T04:23:44.085Z,9.1
2017-03-20T04:24:46.941Z,9.1
2017-03-20T04:25:49.658Z,9.1
2017-03-20T04:26:52.006Z,9
2017-03-20T04:27:55.168Z,9
2017-03-20T04:28:57.521Z,9.1
2017-03-20T04:30:00.375Z,9.1
2017-03-20T04:31:02.590Z,9.1
2017-03-20T04:32:05.203Z,9.1
2017-03-20T04:33:08.365Z,9
2017-03-20T04:34:10.720Z,9
2017-03-20T04:35:13.609Z,9
2017-03-20T04:36:15.958Z,9
2017-03-20T04:37:18.817Z,9
2017-03-20T04:38:21.471Z,9
2017-03-20T04:39:23.822Z,9
2017-03-20T04:40:26.673Z,9
2017-03-20T04:41:29.217Z,9.1
2017-03-20T04:42:32.066Z,9
2017-03-20T04:43:34.718Z,9.1
2017-03-20T04:44:36.933Z,9.1
2017-03-20T04:45:39.780Z,9.1
2017-03-20T04:46:42.629Z,9.1
2017-03-20T04:47:44.977Z,9
2017-03-20T04:48:48.144Z,9.1
2017-03-20T04:49:50.358Z,9.1
2017-03-20T04:50:53.205Z,9.1
2017-03-20T04:51:55.550Z,9.1
2017-03-20T04:52:58.265Z,9.1
2017-03-20T04:54:01.422Z,9.1
2017-03-20T04:55:03.642Z,9
2017-03-20T04:56:06.494Z,9
2017-03-20T04:57:08.847Z,9
2017-03-20T04:58:11.704Z,9
2017-03-20T04:59:14.302Z,9
2017-03-20T05:00:17.165Z,9.1
2017-03-20T05:01:19.512Z,9.1
2017-03-20T05:02:22.369Z,9.1
2017-03-20T05:03:24.723Z,9
2017-03-20T05:05:30.237Z,9
2017-03-20T05:06:32.449Z,9
2017-03-20T05:07:35.034Z,9
2017-03-20T05:08:37.892Z,9
2017-03-20T05:09:40.607Z,9
2017-03-20T05:10:43.626Z,9
2017-03-20T05:11:45.977Z,9.1
2017-03-20T05:12:48.827Z,9.1
2017-03-20T05:13:51.412Z,9.1
2017-03-20T05:14:53.763Z,9.1
2017-03-20T05:15:56.921Z,9.1
2017-03-20T05:16:59.143Z,9.1
2017-03-20T05:18:02.012Z,9.1
2017-03-20T05:19:04.368Z,9.1
2017-03-20T05:20:07.218Z,9.1
2017-03-20T05:21:10.426Z,9.1
2017-03-20T05:22:12.773Z,9.1
2017-03-20T05:23:15.124Z,9.1
2017-03-20T05:24:17.977Z,9.1
2017-03-20T05:25:20.324Z,9.1
2017-03-20T05:26:23.427Z,9.1
2017-03-20T05:27:25.775Z,9.1
2017-03-20T05:28:28.495Z,9.1
2017-03-20T05:29:30.840Z,9.1
2017-03-20T05:30:33.556Z,9.1
2017-03-20T05:31:36.706Z,9.1
2017-03-20T05:32:38.928Z,9.1
2017-03-20T05:33:41.779Z,9.2
2017-03-20T05:34:44.371Z,9.1
2017-03-20T05:35:47.223Z,9.1
2017-03-20T05:36:49.823Z,9.1
2017-03-20T05:37:52.174Z,9.2
2017-03-20T05:38:54.894Z,9.1
2017-03-20T05:39:57.751Z,9.1
2017-03-20T05:41:00.100Z,9.1
2017-03-20T05:42:03.120Z,9.1
2017-03-20T05:43:05.468Z,9.1
2017-03-20T05:44:08.189Z,9.1
2017-03-20T05:45:11.052Z,9.2
2017-03-20T05:46:13.400Z,9.2
2017-03-20T05:47:16.514Z,9.3
2017-03-20T05:48:18.866Z,9.3
2017-03-20T05:49:21.591Z,9.3
2017-03-20T05:50:23.947Z,9.2
2017-03-20T05:51:26.804Z,9.2
2017-03-20T05:52:29.456Z,9.2
2017-03-20T05:53:31.811Z,9.2
2017-03-20T05:54:34.528Z,9.2
2017-03-20T05:56:40.345Z,9.3
2017-03-20T05:57:42.998Z,9.3
2017-03-20T05:58:45.354Z,9.2
2017-03-20T05:59:47.705Z,9.3
2017-03-20T06:00:50.558Z,9.3
2017-03-20T06:01:53.409Z,9.3
2017-03-20T06:02:56.017Z,9.3
2017-03-20T06:03:58.368Z,9.4
2017-03-20T06:05:01.220Z,9.4
2017-03-20T06:06:04.075Z,9.4
2017-03-20T06:08:09.634Z,9.4
2017-03-20T06:09:11.850Z,9.5
2017-03-20T06:11:16.924Z,9.5
2017-03-20T06:12:19.645Z,9.5
2017-03-20T06:13:22.802Z,9.5
2017-03-20T06:14:25.078Z,9.6
2017-03-20T06:15:28.499Z,9.6
2017-03-20T06:16:30.340Z,9.6
2017-03-20T06:17:33.194Z,9.6
2017-03-20T06:18:35.847Z,9.6
2017-03-20T06:19:38.238Z,9.6
2017-03-20T06:20:41.088Z,9.6
2017-03-20T06:23:48.873Z,9.6
2017-03-20T06:24:51.594Z,9.6
2017-03-20T06:25:54.450Z,9.6
2017-03-20T06:26:56.665Z,9.7
2017-03-20T06:27:59.390Z,9.8
2017-03-20T06:29:02.546Z,9.8
2017-03-20T06:30:04.760Z,9.8
2017-03-20T06:31:07.615Z,9.8
2017-03-20T06:32:09.984Z,9.8
2017-03-20T06:33:12.709Z,9.8
2017-03-20T06:35:18.295Z,9.8
2017-03-20T06:38:26.195Z,9.8
2017-03-20T06:39:29.050Z,9.8
2017-03-20T06:40:31.705Z,9.8
2017-03-20T06:41:34.056Z,9.8
2017-03-20T06:42:36.913Z,9.8
2017-03-20T06:43:39.263Z,9.8
2017-03-20T06:44:42.756Z,9.8
2017-03-20T06:45:44.724Z,9.8
2017-03-20T06:46:47.442Z,9.8
2017-03-20T06:47:49.853Z,9.9
2017-03-20T06:48:52.710Z,9.9
2017-03-20T06:52:01.044Z,9.9
2017-03-20T06:54:05.808Z,9.9
2017-03-20T06:55:08.526Z,10
2017-03-20T07:00:22.227Z,10
2017-03-20T07:01:24.572Z,10
2017-03-20T07:02:27.426Z,10
2017-03-20T07:03:29.777Z,10.1
2017-03-20T07:04:32.628Z,10.1
2017-03-20T07:05:35.725Z,10.1
2017-03-20T07:07:40.473Z,10.2
2017-03-20T07:08:43.202Z,10.2
2017-03-20T07:10:48.763Z,10.3
2017-03-20T07:11:50.973Z,10.3
2017-03-20T07:12:53.838Z,10.3
2017-03-20T07:13:56.693Z,10.3
2017-03-20T07:14:59.413Z,10.3
2017-03-20T07:16:02.433Z,10.4
2017-03-20T07:17:04.784Z,10.4
2017-03-20T07:18:07.135Z,10.4
2017-03-20T07:19:09.993Z,10.5
2017-03-20T07:21:15.511Z,10.5
2017-03-20T07:22:17.597Z,10.5
2017-03-20T07:23:20.451Z,10.6
2017-03-20T07:25:25.710Z,10.7
2017-03-20T07:26:28.861Z,10.7
2017-03-20T07:27:31.075Z,10.8
2017-03-20T07:29:36.336Z,10.8
2017-03-20T07:30:39.050Z,10.8
2017-03-20T07:31:42.207Z,10.8
2017-03-20T07:32:44.430Z,10.9
2017-03-20T07:34:49.696Z,11
2017-03-20T07:35:52.554Z,11
2017-03-20T07:36:55.710Z,11
2017-03-20T07:37:58.055Z,11.1
2017-03-20T07:39:00.406Z,11
2017-03-20T07:40:03.269Z,11.1
2017-03-20T07:41:05.988Z,11.1
2017-03-20T07:43:11.370Z,11.3
2017-03-20T07:44:13.584Z,11.4
2017-03-20T07:45:16.437Z,11.5
2017-03-20T07:46:19.290Z,11.5
2017-03-20T07:47:22.002Z,11.5
2017-03-20T07:48:24.655Z,11.5
2017-03-20T07:49:28.437Z,11.6
2017-03-20T07:50:30.118Z,11.6
2017-03-20T07:51:33.397Z,11.6
2017-03-20T07:52:35.243Z,11.6
2017-03-20T07:53:38.351Z,11.5
2017-03-20T07:54:40.712Z,11.4
2017-03-20T07:55:43.059Z,11.3
2017-03-20T07:56:45.915Z,11.2
2017-03-20T07:57:48.771Z,11.2
2017-03-20T07:58:51.244Z,11.1
2017-03-20T07:59:54.098Z,11.1
2017-03-20T08:00:56.456Z,11.1
2017-03-20T08:01:59.176Z,11.1
2017-03-20T08:03:02.039Z,11.1
2017-03-20T08:05:07.603Z,11.2
2017-03-20T08:06:09.950Z,11.3
2017-03-20T08:07:12.802Z,11.3
2017-03-20T08:08:15.524Z,11.3
2017-03-20T08:09:17.743Z,11.3
2017-03-20T08:10:21.217Z,11.4
2017-03-20T08:11:23.560Z,11.5
2017-03-20T08:12:25.912Z,11.5
2017-03-20T08:13:28.765Z,11.6
2017-03-20T08:14:31.624Z,11.7
2017-03-20T08:15:34.225Z,11.8
2017-03-20T08:16:36.610Z,11.8
2017-03-20T08:17:39.462Z,11.9
2017-03-20T08:18:42.190Z,12
2017-03-20T08:19:44.913Z,12
2017-03-20T08:20:48.020Z,12
2017-03-20T08:21:50.372Z,12
2017-03-20T08:22:52.963Z,12
2017-03-20T08:23:55.820Z,12
2017-03-20T08:24:58.178Z,12
2017-03-20T08:26:01.148Z,11.9
2017-03-20T08:27:03.492Z,11.8
2017-03-20T08:28:06.220Z,11.7
2017-03-20T08:29:08.942Z,11.6
2017-03-20T08:30:11.796Z,11.6
2017-03-20T08:31:14.396Z,11.6
2017-03-20T08:32:17.246Z,11.5
2017-03-20T08:33:19.461Z,11.5
2017-03-20T08:34:22.320Z,11.4
2017-03-20T08:35:25.173Z,11.3
2017-03-20T08:36:27.822Z,11.3
2017-03-20T08:37:30.671Z,11.2
2017-03-20T08:38:33.017Z,11.2
2017-03-20T08:39:35.872Z,11.1
2017-03-20T08:40:38.725Z,11.1
2017-03-20T08:41:41.370Z,11.1
2017-03-20T08:42:43.721Z,11.1
2017-03-20T08:43:46.576Z,11
2017-03-20T08:44:49.432Z,11
2017-03-20T08:45:51.783Z,11.1
2017-03-20T08:46:54.931Z,11.1
2017-03-20T08:47:57.292Z,11.1
2017-03-20T08:49:00.148Z,11.2
2017-03-20T08:50:02.553Z,11.2
2017-03-20T08:51:05.411Z,11.3
2017-03-20T08:52:08.067Z,11.3
2017-03-20T08:53:10.786Z,11.4
2017-03-20T08:54:13.479Z,11.5
2017-03-20T08:55:15.826Z,11.5
2017-03-20T08:57:21.885Z,11.8
2017-03-20T08:58:24.265Z,11.8
2017-03-20T08:59:26.619Z,11.8
2017-03-20T09:00:29.467Z,11.8
2017-03-20T09:01:32.192Z,11.9
2017-03-20T09:02:35.214Z,12
2017-03-20T09:03:37.681Z,12
2017-03-20T09:04:40.030Z,12.1
2017-03-20T09:05:42.876Z,12.3
2017-03-20T09:06:45.282Z,12.4
2017-03-20T09:07:48.444Z,12.5
2017-03-20T09:08:50.795Z,12.5
2017-03-20T09:09:53.384Z,12.5
2017-03-20T09:10:56.116Z,12.5
2017-03-20T09:11:58.968Z,12.5
2017-03-20T09:13:01.936Z,12.5
2017-03-20T09:14:04.284Z,12.5
2017-03-20T09:15:07.002Z,12.8
2017-03-20T09:16:09.717Z,12.9
2017-03-20T09:17:12.564Z,13
2017-03-20T09:18:15.166Z,13.1
2017-03-20T09:19:17.882Z,13.3
2017-03-20T09:20:20.733Z,13.3
2017-03-20T09:21:23.085Z,13.4
2017-03-20T09:22:25.806Z,13.5
2017-03-20T09:23:28.838Z,13.6
2017-03-20T09:24:31.052Z,13.6
2017-03-20T09:25:33.699Z,13.8
2017-03-20T09:26:36.549Z,13.7
2017-03-20T09:27:39.398Z,13.8
2017-03-20T09:28:42.556Z,13.7
2017-03-20T09:29:44.768Z,13.6
2017-03-20T09:30:47.490Z,13.6
2017-03-20T09:32:52.613Z,13.3
2017-03-20T09:33:55.718Z,13.3
2017-03-20T09:34:58.436Z,13.2
2017-03-20T09:36:01.151Z,13.1
2017-03-20T09:37:03.366Z,13.1
2017-03-20T09:38:06.085Z,13
2017-03-20T09:40:12.556Z,12.8
2017-03-20T09:41:14.409Z,12.8
2017-03-20T09:42:17.683Z,12.9
2017-03-20T09:43:19.899Z,13
2017-03-20T09:44:22.769Z,13.1
2017-03-20T09:45:25.603Z,13.1
2017-03-20T09:46:27.955Z,13.2
2017-03-20T09:47:30.804Z,13.4
2017-03-20T09:48:33.659Z,13.3
2017-03-20T09:49:35.877Z,13.3
2017-03-20T09:50:39.265Z,13.2
2017-03-20T09:51:41.512Z,13.3
2017-03-20T09:52:44.231Z,13.4
2017-03-20T09:53:47.084Z,13.5
2017-03-20T09:54:50.353Z,13.6
2017-03-20T09:55:53.009Z,13.8
2017-03-20T09:56:55.224Z,13.6
2017-03-20T09:57:58.113Z,13.6
2017-03-20T10:00:03.244Z,13.6
2017-03-20T10:01:06.263Z,13.6
2017-03-20T10:02:08.615Z,13.6
2017-03-20T10:03:11.575Z,13.6
2017-03-20T10:04:14.430Z,13.6
2017-03-20T10:05:16.510Z,13.7
2017-03-20T10:06:19.983Z,13.7
2017-03-20T10:07:22.201Z,13.7
2017-03-20T10:08:25.055Z,13.8
2017-03-20T10:09:27.777Z,14
2017-03-20T10:10:30.634Z,14
2017-03-20T10:11:33.651Z,13.9
2017-03-20T10:12:36.555Z,14
2017-03-20T10:13:38.916Z,14.1
2017-03-20T10:14:41.261Z,14.3
2017-03-20T10:15:44.112Z,14.4
2017-03-20T10:16:47.130Z,14.5
2017-03-20T10:17:49.477Z,14.5
2017-03-20T10:18:52.331Z,14.5
2017-03-20T10:19:55.751Z,14.3
2017-03-20T10:20:57.589Z,14.2
2017-03-20T10:22:00.747Z,14.1
2017-03-20T10:24:05.740Z,14.2
2017-03-20T10:25:08.453Z,14.2
2017-03-20T10:26:11.303Z,14.3
2017-03-20T10:27:14.461Z,14.4
2017-03-20T10:28:16.959Z,14.5
2017-03-20T10:29:19.179Z,14.5
2017-03-20T10:31:24.812Z,14.6
2017-03-20T10:32:27.839Z,14.6
2017-03-20T10:33:30.697Z,14.6
2017-03-20T10:34:33.046Z,14.7
2017-03-20T10:35:35.766Z,14.5
2017-03-20T10:41:52.462Z,14.2
2017-03-20T10:51:17.382Z,14.6
2017-03-20T10:52:19.729Z,14.8
2017-03-20T10:53:22.074Z,14.6
2017-03-20T10:54:24.800Z,14.6
2017-03-20T10:55:27.520Z,14.6
2017-03-20T10:56:30.536Z,14.4
2017-03-20T10:57:33.246Z,14.4
2017-03-20T10:58:36.102Z,14.5
2017-03-20T10:59:38.184Z,14.6
2017-03-20T11:00:41.539Z,14.6
2017-03-20T11:01:44.688Z,14.5
2017-03-20T11:02:47.041Z,14.5
2017-03-20T11:03:49.422Z,14.5
2017-03-20T11:04:52.275Z,14.5
2017-03-20T11:05:54.995Z,14.4
2017-03-20T11:06:58.010Z,14.3
2017-03-20T11:08:00.367Z,14.3
2017-03-20T11:09:03.221Z,14.3
2017-03-20T11:10:06.076Z,14.1
2017-03-20T11:11:08.660Z,14
2017-03-20T11:12:11.543Z,14
2017-03-20T11:13:14.393Z,13.8
2017-03-20T11:14:16.611Z,13.8
2017-03-20T11:15:19.844Z,13.8
2017-03-20T11:16:22.191Z,13.7
2017-03-20T11:17:25.166Z,13.6
2017-03-20T11:18:28.587Z,13.6
2017-03-20T11:19:30.435Z,13.6
2017-03-20T11:20:33.287Z,13.5
2017-03-20T11:21:36.009Z,13.5
2017-03-20T11:22:39.116Z,13.5
2017-03-20T11:23:41.330Z,13.5
2017-03-20T11:24:44.045Z,13.5
2017-03-20T11:25:46.766Z,13.5
2017-03-20T11:26:49.622Z,13.5
2017-03-20T11:27:52.785Z,13.5
2017-03-20T11:28:55.135Z,13.5
2017-03-20T11:31:00.766Z,13.7
2017-03-20T11:32:03.117Z,13.8
2017-03-20T11:33:06.091Z,14
2017-03-20T11:34:08.811Z,14.1
2017-03-20T11:35:11.394Z,14.2
2017-03-20T11:36:14.242Z,14
2017-03-20T11:37:16.963Z,14
2017-03-20T11:38:20.127Z,14.1
2017-03-20T11:39:22.344Z,14.1
2017-03-20T11:40:25.195Z,14.1
2017-03-20T11:41:27.780Z,14
2017-03-20T11:42:30.496Z,14
2017-03-20T11:43:33.534Z,14.1
2017-03-20T11:44:35.800Z,14.1
2017-03-20T11:45:38.663Z,14.1
2017-03-20T11:47:43.939Z,14.4
2017-03-20T11:48:47.004Z,14.5
2017-03-20T11:49:49.720Z,14.5
2017-03-20T11:50:52.450Z,14.5
2017-03-20T11:51:55.300Z,14.5
2017-03-20T11:54:00.861Z,14.6
2017-03-20T11:55:02.941Z,14.5
2017-03-20T11:56:06.026Z,14.6
2017-03-20T11:57:08.873Z,14.6
2017-03-20T11:58:11.497Z,14.6
2017-03-20T11:59:14.657Z,14.5
2017-03-20T12:00:17.010Z,14.5
2017-03-20T12:01:19.591Z,14.3
2017-03-20T12:02:22.174Z,14.2
2017-03-20T12:03:25.029Z,14.1
2017-03-20T12:05:31.612Z,14.1
2017-03-20T12:06:33.326Z,14
2017-03-20T12:07:36.181Z,14
2017-03-20T12:08:38.905Z,14
2017-03-20T12:09:41.178Z,14
2017-03-20T12:10:44.195Z,13.8
2017-03-20T12:11:47.049Z,13.8
2017-03-20T12:12:49.904Z,13.8
2017-03-20T12:13:52.189Z,13.8
2017-03-20T12:14:55.046Z,13.7
2017-03-20T12:15:57.929Z,13.7
2017-03-20T12:17:00.649Z,13.6
2017-03-20T12:18:03.507Z,13.5
2017-03-20T12:19:05.867Z,13.5
2017-03-20T12:20:08.718Z,13.5
2017-03-20T12:21:11.928Z,13.6
2017-03-20T12:22:14.139Z,13.6
2017-03-20T12:23:16.860Z,13.6
2017-03-20T12:24:19.710Z,13.7
2017-03-20T12:25:22.567Z,13.8
2017-03-20T12:26:25.220Z,14
2017-03-20T12:27:27.803Z,14.1
2017-03-20T12:28:30.530Z,14.2
2017-03-20T12:29:33.250Z,14.3
2017-03-20T12:30:36.100Z,14.3
2017-03-20T12:31:38.993Z,14.3
2017-03-20T12:32:41.348Z,14.4
2017-03-20T12:33:44.133Z,14.4
2017-03-20T12:34:46.985Z,14.5
2017-03-20T12:35:49.842Z,14.6
2017-03-20T12:36:53.070Z,14.5
2017-03-20T12:37:54.915Z,14.5
2017-03-20T12:38:57.636Z,14.5
2017-03-20T12:40:00.487Z,14.5
2017-03-20T12:41:03.343Z,14.5
2017-03-20T12:42:06.311Z,14.4
2017-03-20T12:43:08.668Z,14.3
2017-03-20T12:44:11.254Z,14.5
2017-03-20T12:45:13.973Z,14.3
2017-03-20T12:46:16.829Z,14.2
2017-03-20T12:47:19.854Z,14.1
2017-03-20T12:49:25.114Z,14.3
2017-03-20T12:50:27.834Z,14.2
2017-03-20T12:51:30.681Z,14.2
2017-03-20T12:52:33.654Z,14.2
2017-03-20T12:53:36.004Z,14.2
2017-03-20T12:54:38.600Z,14.2
2017-03-20T12:55:41.452Z,14.3
2017-03-20T12:56:44.037Z,14.3
2017-03-20T12:57:47.117Z,14.3
2017-03-20T12:59:52.382Z,14.6
2017-03-20T13:00:55.240Z,14.6
2017-03-20T13:01:58.655Z,14.6
2017-03-20T13:03:00.622Z,14.6
2017-03-20T13:04:03.470Z,14.5
2017-03-20T13:05:06.181Z,14.4
2017-03-20T13:06:09.038Z,14.2
2017-03-20T13:07:11.398Z,14.2
2017-03-20T13:08:14.549Z,14.1
2017-03-20T13:09:16.902Z,14.2
2017-03-20T13:10:19.818Z,14.2
2017-03-20T13:11:22.665Z,14.1
2017-03-20T13:12:25.069Z,14.1
2017-03-20T13:13:28.228Z,14.1
2017-03-20T13:14:30.581Z,14.1
2017-03-20T13:15:33.432Z,14.1
2017-03-20T13:16:36.014Z,14
2017-03-20T13:17:38.867Z,14
2017-03-20T13:18:41.841Z,14
2017-03-20T13:19:44.185Z,14.1
2017-03-20T13:20:47.044Z,14.1
2017-03-20T13:21:49.890Z,14.2
2017-03-20T13:22:52.472Z,14.3
2017-03-20T13:23:55.302Z,14.3
2017-03-20T13:24:58.157Z,14.4
2017-03-20T13:26:00.879Z,14.5
2017-03-20T13:27:03.730Z,14.5
2017-03-20T13:28:06.379Z,14.6
2017-03-20T13:29:09.535Z,14.6
2017-03-20T13:30:11.745Z,14.5
2017-03-20T13:31:14.633Z,14.5
2017-03-20T13:33:19.892Z,14.5
2017-03-20T13:34:22.917Z,14.5
2017-03-20T13:35:25.128Z,14.5
2017-03-20T13:36:27.914Z,14.5
2017-03-20T13:37:30.805Z,14.5
2017-03-20T13:38:33.660Z,14.5
2017-03-20T13:39:36.815Z,14.5
2017-03-20T13:40:39.160Z,14.5
2017-03-20T13:41:41.872Z,14.6
2017-03-20T13:43:47.137Z,14.3
2017-03-20T13:44:50.108Z,14.3
2017-03-20T13:46:55.367Z,14.4
2017-03-20T13:47:58.079Z,14.5
2017-03-20T13:49:00.664Z,14.5
2017-03-20T13:50:03.685Z,14.5
2017-03-20T13:51:06.400Z,14.5
2017-03-20T13:52:09.248Z,14.5
2017-03-20T13:53:11.974Z,14.5
2017-03-20T13:55:18.109Z,14.6
2017-03-20T13:56:19.953Z,14.6
2017-03-20T13:57:22.537Z,14.6
2017-03-20T13:58:25.759Z,14.6
2017-03-20T13:59:28.618Z,14.5
2017-03-20T14:00:31.271Z,14.5
2017-03-20T14:01:33.621Z,14.4
2017-03-20T14:02:36.492Z,14.4
2017-03-20T14:03:39.345Z,14.3
2017-03-20T14:04:42.197Z,14.3
2017-03-20T14:06:47.575Z,14.3
2017-03-20T14:07:50.297Z,14.5
2017-03-20T14:08:53.153Z,14.5
2017-03-20T14:09:55.370Z,14.5
2017-03-20T14:10:58.457Z,14.5
2017-03-20T14:12:01.296Z,14.5
2017-03-20T14:18:17.771Z,14
2017-03-20T14:19:20.492Z,13.9
2017-03-20T14:20:23.244Z,13.8
2017-03-20T14:21:25.473Z,13.8
2017-03-20T14:22:29.394Z,13.8
2017-03-20T14:23:31.406Z,13.6
2017-03-20T14:24:34.270Z,13.6
2017-03-20T14:25:36.481Z,13.6
2017-03-20T14:26:39.367Z,13.6
2017-03-20T14:27:42.213Z,13.6
2017-03-20T14:28:45.400Z,13.6
2017-03-20T14:29:47.748Z,13.6
2017-03-20T14:30:50.599Z,13.5
2017-03-20T14:31:52.951Z,13.5
2017-03-20T14:32:55.669Z,13.5
2017-03-20T14:33:58.699Z,13.5
2017-03-20T14:35:01.553Z,13.6
2017-03-20T14:36:03.903Z,13.6
2017-03-20T14:37:06.753Z,13.6
2017-03-20T14:39:12.196Z,13.5
2017-03-20T14:40:15.055Z,13.5
2017-03-20T14:41:17.907Z,13.5
2017-03-20T14:42:20.256Z,13.5
2017-03-20T14:43:23.118Z,13.6
2017-03-20T14:44:26.097Z,13.6
2017-03-20T14:45:28.444Z,13.6
2017-03-20T14:46:31.025Z,13.6
2017-03-20T14:47:33.881Z,13.5
2017-03-20T14:48:36.739Z,13.6
2017-03-20T14:49:39.765Z,13.6
2017-03-20T14:50:42.115Z,13.6
2017-03-20T14:51:44.969Z,13.6
2017-03-20T14:52:47.691Z,13.6
2017-03-20T14:53:50.548Z,13.4
2017-03-20T14:54:53.704Z,13.3
2017-03-20T14:55:55.914Z,13.3
2017-03-20T14:56:58.764Z,13.1
2017-03-20T14:58:01.110Z,13.1
2017-03-20T14:59:04.012Z,13
2017-03-20T15:00:07.198Z,13.1
2017-03-20T15:01:09.424Z,13.1
2017-03-20T15:02:12.276Z,13.1
2017-03-20T15:03:15.134Z,13.1
2017-03-20T15:04:17.491Z,13.1
2017-03-20T15:05:20.711Z,13.1
2017-03-20T15:06:23.056Z,13.1
2017-03-20T15:07:25.905Z,13.2
2017-03-20T15:08:28.622Z,13.3
2017-03-20T15:09:31.341Z,13.3
2017-03-20T15:10:34.491Z,13.2
2017-03-20T15:11:36.838Z,13.2
2017-03-20T15:12:39.690Z,13.2
2017-03-20T15:13:42.039Z,13.3
2017-03-20T15:14:44.897Z,13.2
2017-03-20T15:15:48.050Z,13.2
2017-03-20T15:16:50.396Z,13.1
2017-03-20T15:17:53.112Z,13.1
2017-03-20T15:18:55.973Z,13.1
2017-03-20T15:19:58.327Z,13.1
2017-03-20T15:21:01.475Z,13.2
2017-03-20T15:22:03.694Z,13.3
2017-03-20T15:23:06.404Z,13.3
2017-03-20T15:24:09.124Z,13.3
2017-03-20T15:25:11.975Z,13.3
2017-03-20T15:26:15.126Z,13.3
2017-03-20T15:27:17.483Z,13.3
2017-03-20T15:28:20.343Z,13.3
2017-03-20T15:29:23.199Z,13.4
2017-03-20T15:30:25.556Z,13.4
2017-03-20T15:31:28.712Z,13.4